Time;durP1;ratioP1;P1;durP2;ratioP2;P2;SDS_P1;SDS_P2;PMS_P1;PMS_P2;Temp;Humidity;BMP_temperature;BMP_pressure;BME280_temperature;BME280_humidity;BME280_pressure;Samples;Min_cycle;Max_cycle;Signal;HPM_P1;HPM_P2
2023/10/31 00:01:35;;;;;;;10.83;3.60;;;11.60;42.90;;;;;;5031381;28;20439;-59
2023/10/31 00:04:02;;;;;;;8.53;3.87;;;11.60;43.90;;;;;;5031577;28;20471;-61
2023/10/31 00:06:30;;;;;;;13.77;3.63;;;11.60;44.50;;;;;;5031843;28;20861;-59
2023/10/31 00:08:57;;;;;;;4.50;3.40;;;11.60;44.50;;;;;;5031185;28;20550;-56
2023/10/31 00:11:23;;;;;;;6.03;3.53;;;11.60;44.40;;;;;;5031874;28;20447;-56
2023/10/31 00:13:50;;;;;;;6.07;3.60;;;11.60;44.40;;;;;;5031460;28;20903;-56
2023/10/31 00:16:16;;;;;;;3.93;3.30;;;11.60;43.60;;;;;;5031802;28;20446;-56
2023/10/31 00:18:43;;;;;;;3.17;2.83;;;11.60;42.20;;;;;;5030954;28;20559;-56
2023/10/31 00:21:09;;;;;;;7.90;3.70;;;11.60;41.80;;;;;;5017202;28;21017;-57
2023/10/31 00:23:44;;;;;;;6.40;3.80;;;11.60;41.50;;;;;;5016946;28;20820;-57
2023/10/31 00:26:11;;;;;;;7.37;3.40;;;11.50;41.00;;;;;;5031376;28;20868;-57
2023/10/31 00:28:38;;;;;;;17.33;4.00;;;11.50;40.80;;;;;;5032029;28;20438;-57
2023/10/31 00:31:05;;;;;;;11.90;3.60;;;11.50;39.50;;;;;;5050141;28;20439;-57
2023/10/31 00:33:31;;;;;;;4.90;3.20;;;11.50;38.80;;;;;;5051047;28;20474;-55
2023/10/31 00:35:58;;;;;;;9.00;4.10;;;11.50;38.40;;;;;;5047887;28;20463;-54
2023/10/31 00:38:25;;;;;;;6.50;3.57;;;11.50;38.10;;;;;;5041373;28;20442;-53
2023/10/31 00:40:52;;;;;;;8.07;3.83;;;11.50;36.80;;;;;;5046486;28;20493;-53
2023/10/31 00:43:19;;;;;;;6.47;3.43;;;11.50;35.70;;;;;;5031717;28;20485;-54
2023/10/31 00:45:45;;;;;;;4.17;3.47;;;11.50;35.00;;;;;;5034504;28;20463;-54
2023/10/31 00:48:12;;;;;;;6.40;3.87;;;11.50;33.10;;;;;;5035365;28;20447;-56
2023/10/31 00:50:39;;;;;;;8.50;3.60;;;11.40;30.40;;;;;;5035017;28;20454;-55
2023/10/31 00:53:05;;;;;;;8.07;3.60;;;11.40;28.10;;;;;;5033464;28;20532;-55
2023/10/31 00:55:32;;;;;;;4.77;3.40;;;11.40;27.10;;;;;;5034621;28;20810;-54
2023/10/31 00:57:59;;;;;;;3.90;3.27;;;11.40;25.10;;;;;;5033918;28;20880;-54
2023/10/31 01:00:26;;;;;;;11.60;3.80;;;11.40;21.90;;;;;;5035185;28;20824;-56
2023/10/31 01:02:53;;;;;;;11.33;3.83;;;11.30;74.30;;;;;;5034829;28;20500;-55
2023/10/31 01:05:19;;;;;;;8.43;3.60;;;11.30;77.00;;;;;;5034401;28;20470;-55
2023/10/31 01:07:46;;;;;;;4.37;3.60;;;11.30;85.80;;;;;;5034347;28;20443;-55
2023/10/31 01:10:12;;;;;;;4.47;3.27;;;11.30;99.90;;;;;;5032162;28;20471;-54
2023/10/31 01:12:39;;;;;;;9.40;3.90;;;11.30;99.90;;;;;;5016448;28;20497;-55
2023/10/31 01:15:07;;;;;;;11.80;4.17;;;11.20;99.90;;;;;;5021428;28;20580;-54
2023/10/31 01:17:34;;;;;;;6.53;3.50;;;11.20;99.90;;;;;;5034390;28;20478;-56
2023/10/31 01:20:00;;;;;;;4.93;3.60;;;11.20;99.90;;;;;;5034587;28;20459;-56
2023/10/31 01:22:27;;;;;;;3.77;3.20;;;11.20;99.90;;;;;;5034324;28;20844;-55
2023/10/31 01:24:54;;;;;;;4.30;3.47;;;11.20;99.90;;;;;;5032891;28;20540;-56
2023/10/31 01:27:20;;;;;;;7.07;3.70;;;11.20;99.90;;;;;;5025939;28;20804;-56
2023/10/31 01:29:47;;;;;;;9.27;3.40;;;11.10;99.90;;;;;;5034463;28;20943;-56
2023/10/31 01:32:14;;;;;;;5.53;3.30;;;11.10;99.90;;;;;;5033321;28;20887;-57
2023/10/31 01:34:41;;;;;;;7.70;3.97;;;11.10;99.90;;;;;;5034264;28;20984;-56
2023/10/31 01:37:08;;;;;;;9.37;3.73;;;11.10;99.90;;;;;;5033839;28;20447;-55
2023/10/31 01:39:36;;;;;;;10.73;3.23;;;11.10;99.90;;;;;;5034362;28;20438;-56
2023/10/31 01:42:03;;;;;;;27.20;4.70;;;11.10;99.90;;;;;;5032961;28;20463;-57
2023/10/31 01:44:29;;;;;;;8.03;3.20;;;11.10;99.90;;;;;;5034246;28;20877;-56
2023/10/31 01:46:56;;;;;;;7.80;3.63;;;11.10;99.90;;;;;;5034240;28;20443;-56
2023/10/31 01:49:24;;;;;;;9.63;4.00;;;11.00;99.90;;;;;;5032944;28;20889;-56
2023/10/31 01:51:52;;;;;;;18.00;3.37;;;11.00;99.90;;;;;;5033845;28;20489;-56
2023/10/31 01:54:18;;;;;;;5.10;3.30;;;11.00;99.90;;;;;;5034425;28;20494;-56
2023/10/31 01:56:45;;;;;;;7.73;3.50;;;11.00;99.90;;;;;;5032658;28;20504;-56
2023/10/31 01:59:12;;;;;;;6.13;3.27;;;11.00;99.90;;;;;;5026883;28;20900;-56
2023/10/31 02:01:39;;;;;;;10.50;4.83;;;11.00;99.90;;;;;;5032188;28;20509;-57
2023/10/31 02:04:06;;;;;;;14.03;4.03;;;10.90;99.90;;;;;;5033794;28;20469;-57
2023/10/31 02:06:34;;;;;;;9.17;4.40;;;10.90;99.90;;;;;;5032761;28;21030;-57
2023/10/31 02:09:01;;;;;;;8.40;3.33;;;10.90;99.90;;;;;;5034545;28;20488;-56
2023/10/31 02:11:27;;;;;;;9.13;3.80;;;10.90;99.90;;;;;;5033987;28;20450;-56
2023/10/31 02:13:54;;;;;;;8.13;3.40;;;10.90;99.90;;;;;;5034236;28;20540;-57
2023/10/31 02:16:20;;;;;;;6.30;3.20;;;10.90;99.90;;;;;;5032881;28;21095;-58
2023/10/31 02:18:47;;;;;;;10.93;3.73;;;10.90;99.90;;;;;;5026054;28;20852;-57
2023/10/31 02:21:14;;;;;;;5.10;3.90;;;11.00;99.90;;;;;;5034190;28;20462;-57
2023/10/31 02:23:42;;;;;;;9.37;3.70;;;10.90;99.90;;;;;;5034171;28;20485;-57
2023/10/31 02:26:08;;;;;;;5.83;3.33;;;10.90;99.90;;;;;;5034342;28;20731;-56
2023/10/31 02:28:35;;;;;;;4.87;3.30;;;10.90;99.90;;;;;;5034504;28;20450;-56
2023/10/31 02:31:01;;;;;;;8.03;3.33;;;10.90;99.90;;;;;;5033543;28;21006;-58
2023/10/31 02:33:28;;;;;;;10.33;3.60;;;10.90;99.90;;;;;;5026005;28;20471;-57
2023/10/31 02:35:54;;;;;;;3.80;3.50;;;10.90;99.90;;;;;;5014961;28;20494;-56
2023/10/31 02:38:21;;;;;;;4.70;3.43;;;10.90;99.90;;;;;;5033618;28;20513;-56
2023/10/31 02:40:48;;;;;;;11.00;3.47;;;10.90;99.90;;;;;;5034950;28;20474;-57
2023/10/31 02:43:15;;;;;;;6.43;3.93;;;10.90;99.90;;;;;;5035736;28;20789;-56
2023/10/31 02:45:42;;;;;;;4.63;3.47;;;10.90;99.90;;;;;;5037388;28;20811;-56
2023/10/31 02:48:08;;;;;;;11.80;3.73;;;10.90;99.90;;;;;;5050794;28;20458;-57
2023/10/31 02:50:35;;;;;;;9.93;3.97;;;10.90;99.90;;;;;;5042600;28;20443;-57
2023/10/31 02:53:01;;;;;;;5.93;3.93;;;10.90;99.90;;;;;;5051025;28;20462;-56
2023/10/31 02:55:28;;;;;;;9.97;3.30;;;10.80;99.90;;;;;;5050373;28;20501;-56
2023/10/31 02:57:56;;;;;;;6.97;3.77;;;10.80;99.90;;;;;;5047581;28;20505;-56
2023/10/31 03:00:22;;;;;;;8.97;3.47;;;10.80;99.90;;;;;;5033130;28;20501;-56
2023/10/31 03:02:49;;;;;;;9.33;3.90;;;10.80;99.90;;;;;;5032929;28;20647;-56
2023/10/31 03:05:16;;;;;;;4.70;4.17;;;10.80;99.90;;;;;;5030448;28;20486;-55
2023/10/31 03:07:42;;;;;;;7.70;3.63;;;10.80;99.90;;;;;;5013730;28;20443;-56
2023/10/31 03:10:09;;;;;;;7.33;4.20;;;10.80;99.90;;;;;;5025951;28;20889;-57
2023/10/31 03:12:36;;;;;;;9.10;4.17;;;10.80;99.90;;;;;;5032555;28;20446;-56
2023/10/31 03:15:05;;;;;;;10.33;4.27;;;10.80;99.90;;;;;;5032274;28;20486;-56
2023/10/31 03:17:31;;;;;;;5.93;3.30;;;10.80;99.90;;;;;;5032255;28;20447;-56
2023/10/31 03:19:58;;;;;;;7.80;3.97;;;10.80;99.90;;;;;;5030791;28;20458;-56
2023/10/31 03:22:24;;;;;;;11.13;4.27;;;10.80;99.90;;;;;;5023316;28;20443;-56
2023/10/31 03:24:51;;;;;;;13.33;3.90;;;10.80;99.90;;;;;;5032260;28;20465;-56
2023/10/31 03:27:17;;;;;;;10.73;4.50;;;10.80;99.90;;;;;;5030492;28;20498;-56
2023/10/31 03:29:44;;;;;;;8.93;3.93;;;10.80;99.90;;;;;;5032160;28;20443;-57
2023/10/31 03:32:12;;;;;;;6.97;3.83;;;10.90;99.90;;;;;;5032004;28;20434;-56
2023/10/31 03:34:39;;;;;;;8.00;5.03;;;10.80;99.90;;;;;;5032208;28;20548;-56
2023/10/31 03:37:06;;;;;;;6.70;4.20;;;10.80;99.90;;;;;;5030649;28;20537;-56
2023/10/31 03:39:33;;;;;;;6.13;4.10;;;10.80;99.90;;;;;;5023321;28;20936;-57
2023/10/31 03:42:00;;;;;;;5.30;4.30;;;10.80;99.90;;;;;;5031695;28;20451;-57
2023/10/31 03:44:26;;;;;;;4.37;3.57;;;10.80;99.90;;;;;;5031310;28;20984;-56
2023/10/31 03:46:53;;;;;;;6.13;4.07;;;10.80;99.90;;;;;;5031842;28;20501;-56
2023/10/31 03:49:21;;;;;;;4.90;4.00;;;10.80;99.90;;;;;;5029613;28;20521;-56
2023/10/31 03:51:47;;;;;;;14.53;4.37;;;10.80;99.90;;;;;;5022925;28;20448;-56
2023/10/31 03:54:15;;;;;;;6.23;3.93;;;10.80;99.90;;;;;;5031879;28;20522;-56
2023/10/31 03:56:41;;;;;;;6.40;4.27;;;10.80;99.90;;;;;;5031571;28;20447;-56
2023/10/31 03:59:08;;;;;;;10.63;3.97;;;10.80;99.90;;;;;;5031816;28;20489;-56
2023/10/31 04:01:35;;;;;;;7.20;5.00;;;10.80;99.90;;;;;;5030571;28;20462;-56
2023/10/31 04:04:01;;;;;;;9.10;4.10;;;10.70;99.90;;;;;;5031985;28;20479;-56
2023/10/31 04:06:29;;;;;;;9.13;4.60;;;10.70;99.90;;;;;;5030048;28;20451;-55
2023/10/31 04:08:56;;;;;;;5.60;4.30;;;10.70;99.90;;;;;;5020088;28;20502;-54
2023/10/31 04:11:22;;;;;;;11.27;4.50;;;10.70;99.90;;;;;;5012078;28;20444;-53
2023/10/31 04:13:49;;;;;;;6.13;4.83;;;10.70;99.90;;;;;;5011884;28;20443;-54
2023/10/31 04:16:15;;;;;;;8.77;4.67;;;10.70;99.90;;;;;;5011709;28;20439;-54
2023/10/31 04:18:42;;;;;;;6.27;4.80;;;10.70;99.90;;;;;;5021831;28;20508;-54
2023/10/31 04:21:08;;;;;;;7.20;4.40;;;10.70;99.90;;;;;;5035284;28;20489;-53
2023/10/31 04:23:36;;;;;;;14.63;5.63;;;10.70;99.90;;;;;;5033628;28;20516;-54
2023/10/31 04:26:03;;;;;;;7.40;5.33;;;10.70;99.90;;;;;;5027982;28;20439;-54
2023/10/31 04:28:30;;;;;;;8.50;5.00;;;10.70;99.90;;;;;;5035432;28;20446;-54
2023/10/31 04:30:56;;;;;;;10.90;5.00;;;10.70;99.90;;;;;;5035463;28;20449;-54
2023/10/31 04:33:23;;;;;;;6.40;5.47;;;10.80;99.90;;;;;;5034147;28;20435;-53
2023/10/31 04:35:49;;;;;;;10.57;5.43;;;10.70;99.90;;;;;;5034698;28;20525;-54
2023/10/31 04:38:16;;;;;;;11.27;6.03;;;10.80;99.90;;;;;;5035491;28;20447;-54
2023/10/31 04:40:44;;;;;;;11.07;5.10;;;10.70;99.90;;;;;;5023743;28;20973;-55
2023/10/31 04:43:10;;;;;;;7.63;6.07;;;10.70;99.90;;;;;;5015302;28;20827;-54
2023/10/31 04:45:37;;;;;;;8.33;6.00;;;10.80;99.90;;;;;;5015027;28;20459;-54
2023/10/31 04:48:04;;;;;;;10.53;5.70;;;10.80;99.90;;;;;;5015080;28;20443;-54
2023/10/31 04:50:30;;;;;;;7.10;6.13;;;10.80;99.90;;;;;;5020127;28;20892;-56
2023/10/31 04:52:57;;;;;;;8.00;6.73;;;10.80;99.90;;;;;;5034829;28;20447;-56
2023/10/31 04:55:23;;;;;;;7.90;5.93;;;10.80;99.90;;;;;;5033654;28;20490;-56
2023/10/31 04:57:51;;;;;;;8.90;6.10;;;10.80;99.90;;;;;;5032046;28;20997;-56
2023/10/31 05:00:18;;;;;;;9.93;7.27;;;10.90;99.90;;;;;;5014928;28;20517;-55
2023/10/31 05:02:45;;;;;;;9.20;6.20;;;10.90;99.90;;;;;;5014975;28;20509;-56
2023/10/31 05:05:12;;;;;;;12.03;7.20;;;10.90;99.90;;;;;;5014649;28;20506;-57
2023/10/31 05:07:39;;;;;;;10.73;6.73;;;10.90;99.90;;;;;;5018190;28;20937;-57
2023/10/31 05:10:07;;;;;;;10.80;6.77;;;10.90;99.90;;;;;;5034700;28;20450;-56
2023/10/31 05:12:33;;;;;;;9.63;7.03;;;10.80;99.90;;;;;;5033190;28;20941;-57
2023/10/31 05:15:01;;;;;;;10.43;6.40;;;10.90;99.90;;;;;;5025919;28;20514;-56
2023/10/31 05:17:28;;;;;;;10.43;6.63;;;10.90;99.90;;;;;;5034566;28;20521;-56
2023/10/31 05:19:54;;;;;;;8.10;6.47;;;10.90;99.90;;;;;;5033837;28;20532;-56
2023/10/31 05:22:21;;;;;;;7.77;6.97;;;10.90;99.90;;;;;;5034290;28;20975;-56
2023/10/31 05:24:47;;;;;;;8.67;6.80;;;10.90;99.90;;;;;;5034734;28;21032;-55
2023/10/31 05:27:14;;;;;;;7.07;5.70;;;11.00;99.90;;;;;;5034196;28;20864;-57
2023/10/31 05:29:40;;;;;;;7.67;6.43;;;11.00;99.90;;;;;;5032749;28;20960;-57
2023/10/31 05:32:08;;;;;;;8.13;6.87;;;11.00;99.90;;;;;;5026055;28;20862;-57
2023/10/31 05:34:35;;;;;;;5.80;5.40;;;11.00;99.90;;;;;;5034041;28;20482;-55
2023/10/31 05:37:02;;;;;;;8.17;6.77;;;11.00;99.90;;;;;;5033030;28;20509;-59
2023/10/31 05:39:28;;;;;;;7.40;6.70;;;11.00;99.90;;;;;;5034271;28;20818;-57
2023/10/31 05:41:55;;;;;;;8.77;6.60;;;11.00;99.90;;;;;;5033949;28;20898;-57
2023/10/31 05:44:21;;;;;;;7.80;7.00;;;11.00;99.90;;;;;;5033744;28;20467;-57
2023/10/31 05:46:49;;;;;;;9.13;6.27;;;11.00;99.90;;;;;;5032583;28;20525;-55
2023/10/31 05:49:17;;;;;;;8.23;6.47;;;11.00;99.90;;;;;;5025829;28;20486;-56
2023/10/31 05:51:43;;;;;;;7.20;6.60;;;11.00;99.90;;;;;;5033786;28;20526;-56
2023/10/31 05:54:10;;;;;;;7.20;6.50;;;11.00;99.90;;;;;;5032810;28;20482;-55
2023/10/31 05:56:37;;;;;;;8.67;7.07;;;11.00;99.90;;;;;;5033505;28;20506;-56
2023/10/31 05:59:03;;;;;;;9.50;7.50;;;11.10;99.90;;;;;;5033883;28;20815;-56
2023/10/31 06:01:30;;;;;;;10.10;7.10;;;11.10;99.90;;;;;;5032872;28;20443;-56
2023/10/31 06:03:56;;;;;;;8.57;7.50;;;11.10;99.90;;;;;;5025127;28;20455;-57
2023/10/31 06:06:24;;;;;;;8.60;7.70;;;11.10;99.90;;;;;;5033718;28;20493;-56
2023/10/31 06:08:51;;;;;;;10.17;7.40;;;11.10;99.90;;;;;;5033605;28;20500;-56
2023/10/31 06:11:17;;;;;;;9.93;7.07;;;11.10;99.90;;;;;;5032560;28;20516;-56
2023/10/31 06:13:44;;;;;;;7.40;6.63;;;11.10;99.90;;;;;;5033290;28;20443;-58
2023/10/31 06:16:11;;;;;;;8.30;6.80;;;11.20;99.90;;;;;;5033317;28;20487;-56
2023/10/31 06:18:40;;;;;;;15.70;7.40;;;11.20;99.90;;;;;;5023394;28;20471;-56
2023/10/31 06:21:08;;;;;;;9.53;7.50;;;11.10;99.90;;;;;;5026175;28;20447;-56
2023/10/31 06:23:36;;;;;;;7.97;7.17;;;11.20;99.90;;;;;;5033034;28;20504;-57
2023/10/31 06:26:03;;;;;;;8.80;8.00;;;11.20;99.90;;;;;;5033061;28;20438;-56
2023/10/31 06:28:30;;;;;;;8.90;8.10;;;11.20;99.90;;;;;;5030986;28;20520;-55
2023/10/31 06:30:56;;;;;;;8.80;7.90;;;11.20;99.90;;;;;;5033272;28;20500;-56
2023/10/31 06:33:23;;;;;;;9.50;8.60;;;11.20;99.90;;;;;;5033210;28;20447;-56
2023/10/31 06:35:51;;;;;;;10.93;9.20;;;11.20;99.90;;;;;;5022967;28;20483;-55
2023/10/31 06:38:18;;;;;;;8.87;8.07;;;11.20;99.90;;;;;;5018850;28;20482;-56
2023/10/31 06:40:46;;;;;;;8.83;8.00;;;11.30;99.90;;;;;;5013177;28;20455;-56
2023/10/31 06:43:12;;;;;;;9.60;8.70;;;11.30;99.90;;;;;;5012609;28;20447;-56
2023/10/31 06:45:39;;;;;;;10.50;8.53;;;11.30;99.90;;;;;;5026286;28;20627;-56
2023/10/31 06:48:07;;;;;;;12.60;8.60;;;11.30;99.90;;;;;;5033009;28;20442;-55
2023/10/31 06:50:33;;;;;;;11.30;7.77;;;11.30;99.90;;;;;;5032896;28;20446;-55
2023/10/31 06:53:00;;;;;;;8.77;7.97;;;11.40;99.90;;;;;;5031327;28;20462;-56
2023/10/31 06:55:26;;;;;;;8.87;8.03;;;11.40;99.90;;;;;;5024451;28;20540;-56
2023/10/31 06:57:54;;;;;;;8.60;7.80;;;11.50;99.90;;;;;;5032770;28;20492;-57
2023/10/31 07:00:21;;;;;;;8.83;7.40;;;11.50;99.90;;;;;;5031473;28;20462;-57
2023/10/31 07:02:47;;;;;;;9.27;8.30;;;11.50;99.90;;;;;;5032355;28;20450;-56
2023/10/31 07:05:15;;;;;;;16.13;7.53;;;11.60;99.90;;;;;;5032475;28;20473;-56
2023/10/31 07:07:42;;;;;;;10.73;8.27;;;11.60;99.90;;;;;;5032522;28;20455;-56
2023/10/31 07:10:08;;;;;;;10.40;7.40;;;11.70;99.90;;;;;;5032212;28;20462;-57
2023/10/31 07:12:35;;;;;;;8.00;7.20;;;11.70;99.90;;;;;;5024367;28;20535;-57
2023/10/31 07:15:03;;;;;;;8.40;7.47;;;11.70;99.90;;;;;;5032427;28;20826;-56
2023/10/31 07:17:30;;;;;;;8.03;6.83;;;11.70;99.90;;;;;;5031083;28;20524;-57
2023/10/31 07:19:57;;;;;;;8.27;7.57;;;11.70;99.90;;;;;;5032280;28;20471;-57
2023/10/31 07:22:24;;;;;;;6.50;5.77;;;11.80;99.90;;;;;;5030914;28;20901;-57
2023/10/31 07:24:51;;;;;;;6.23;5.60;;;11.80;99.90;;;;;;5032406;28;20467;-56
2023/10/31 07:27:18;;;;;;;10.80;5.53;;;11.90;99.90;;;;;;5025187;28;20470;-57
2023/10/31 07:29:46;;;;;;;5.30;4.80;;;11.90;99.90;;;;;;5030408;28;20439;-56
2023/10/31 07:32:14;;;;;;;4.70;4.30;;;11.90;99.90;;;;;;5034133;28;20447;-56
2023/10/31 07:34:42;;;;;;;4.50;3.53;;;11.90;99.90;;;;;;5032848;28;20538;-54
2023/10/31 07:37:08;;;;;;;3.90;3.60;;;11.80;99.90;;;;;;5031307;28;20522;-56
2023/10/31 07:39:35;;;;;;;4.80;3.80;;;11.80;99.90;;;;;;5033320;28;20438;-55
2023/10/31 07:42:02;;;;;;;3.80;3.50;;;11.80;99.90;;;;;;5031660;28;20874;-56
2023/10/31 07:44:28;;;;;;;22.97;2.80;;;11.80;99.90;;;;;;5023534;28;20459;-55
2023/10/31 07:46:55;;;;;;;3.43;2.93;;;11.70;99.90;;;;;;5032201;28;21039;-55
2023/10/31 07:49:23;;;;;;;6.53;3.07;;;11.60;99.90;;;;;;5032294;28;20867;-55
2023/10/31 07:51:49;;;;;;;23.03;3.50;;;11.60;99.90;;;;;;5032303;28;20443;-56
2023/10/31 07:54:17;;;;;;;2.80;2.47;;;11.60;99.90;;;;;;5031915;28;20486;-55
2023/10/31 07:56:43;;;;;;;3.33;2.47;;;11.60;99.90;;;;;;5037547;28;20490;-55
2023/10/31 07:59:10;;;;;;;2.40;2.30;;;11.50;99.90;;;;;;5036082;28;20888;-55
2023/10/31 08:01:37;;;;;;;4.20;2.43;;;11.50;99.90;;;;;;5037546;28;20549;-55
2023/10/31 08:04:04;;;;;;;2.90;2.37;;;11.50;99.90;;;;;;5024983;28;20463;-55
2023/10/31 08:06:32;;;;;;;1.87;1.70;;;11.50;99.90;;;;;;5028994;28;20428;-57
2023/10/31 08:08:59;;;;;;;2.60;1.70;;;11.40;99.90;;;;;;5026884;28;20513;-55
2023/10/31 08:11:25;;;;;;;2.30;1.87;;;11.50;99.90;;;;;;5044334;28;20462;-55
2023/10/31 08:13:53;;;;;;;3.20;1.73;;;11.40;99.90;;;;;;5040606;28;20538;-56
2023/10/31 08:16:20;;;;;;;1.67;1.50;;;11.50;99.90;;;;;;5036392;28;20512;-56
2023/10/31 08:18:47;;;;;;;2.97;1.20;;;11.50;20.00;;;;;;5033921;28;20492;-60
2023/10/31 08:21:14;;;;;;;1.27;1.17;;;11.50;38.40;;;;;;5016598;28;20458;-59
2023/10/31 08:23:44;;;;;;;1.30;1.00;;;11.50;37.60;;;;;;5016811;28;20948;-59
2023/10/31 08:26:11;;;;;;;3.33;0.90;;;11.50;53.30;;;;;;5021562;28;20458;-58
2023/10/31 08:28:37;;;;;;;1.60;0.97;;;11.50;59.40;;;;;;5036811;28;20485;-57
2023/10/31 08:31:04;;;;;;;0.90;0.77;;;11.50;60.20;;;;;;5036801;28;20442;-58
2023/10/31 08:33:31;;;;;;;0.80;0.80;;;11.50;64.70;;;;;;5034970;28;20470;-58
2023/10/31 08:35:57;;;;;;;0.90;0.90;;;11.50;73.00;;;;;;5024870;28;20510;-58
2023/10/31 08:38:24;;;;;;;1.23;0.70;;;11.50;62.70;;;;;;5016470;28;21008;-59
2023/10/31 08:40:52;;;;;;;1.33;0.80;;;11.50;73.20;;;;;;5016435;28;20483;-59
2023/10/31 08:43:18;;;;;;;1.97;0.70;;;11.50;77.20;;;;;;5016511;28;20436;-59
2023/10/31 08:45:45;;;;;;;0.70;0.70;;;11.50;91.50;;;;;;5016379;28;20452;-58
2023/10/31 08:48:11;;;;;;;2.43;0.57;;;11.60;88.30;;;;;;5016461;28;20478;-58
2023/10/31 08:50:38;;;;;;;0.70;0.70;;;11.60;90.30;;;;;;5024991;28;20521;-58
2023/10/31 08:53:05;;;;;;;1.53;1.00;;;11.60;90.50;;;;;;5017337;28;20440;-58
2023/10/31 08:55:32;;;;;;;0.83;0.80;;;11.60;93.80;;;;;;5016632;28;20459;-57
2023/10/31 08:58:00;;;;;;;3.53;0.80;;;11.60;93.10;;;;;;5029975;28;20466;-57
2023/10/31 09:00:28;;;;;;;1.63;1.07;;;11.60;91.60;;;;;;5036626;28;20443;-59
2023/10/31 09:02:54;;;;;;;1.30;0.70;;;11.60;99.90;;;;;;5036408;28;20451;-58
2023/10/31 09:05:21;;;;;;;1.27;0.80;;;11.60;91.50;;;;;;5036256;28;20977;-60
2023/10/31 09:07:48;;;;;;;0.90;0.60;;;11.70;99.90;;;;;;5034609;28;20467;-59
2023/10/31 09:10:14;;;;;;;0.90;0.90;;;11.80;99.90;;;;;;5030076;28;20465;-59
2023/10/31 09:12:41;;;;;;;0.80;0.70;;;11.80;98.00;;;;;;5037220;28;20485;-58
2023/10/31 09:15:10;;;;;;;2.47;0.80;;;11.70;99.90;;;;;;5039928;28;20584;-58
2023/10/31 09:17:37;;;;;;;2.40;0.67;;;11.70;99.90;;;;;;5046345;28;20478;-59
2023/10/31 09:20:04;;;;;;;1.10;0.63;;;11.70;99.90;;;;;;5044476;28;20451;-57
2023/10/31 09:22:30;;;;;;;1.30;0.70;;;11.80;99.90;;;;;;5044196;28;20451;-58
2023/10/31 09:24:57;;;;;;;1.30;0.60;;;11.80;99.90;;;;;;5042556;28;20482;-58
2023/10/31 09:27:24;;;;;;;0.60;0.50;;;11.80;99.90;;;;;;5035909;28;20443;-56
2023/10/31 09:29:51;;;;;;;2.20;0.50;;;11.80;99.90;;;;;;5033715;28;20516;-57
2023/10/31 09:32:19;;;;;;;0.80;0.50;;;11.80;99.90;;;;;;5034878;28;20455;-57
2023/10/31 09:34:46;;;;;;;1.90;0.80;;;11.80;99.90;;;;;;5031084;28;20490;-57
2023/10/31 09:37:12;;;;;;;1.53;0.87;;;11.80;99.90;;;;;;5026893;28;20557;-58
2023/10/31 09:39:39;;;;;;;1.73;0.70;;;11.90;99.90;;;;;;5034558;28;20505;-57
2023/10/31 09:42:07;;;;;;;1.20;0.80;;;11.90;99.90;;;;;;5034370;28;20468;-57
2023/10/31 09:44:34;;;;;;;1.00;0.70;;;11.90;99.90;;;;;;5033023;28;20482;-56
2023/10/31 09:47:02;;;;;;;1.73;0.80;;;11.90;99.90;;;;;;5034013;28;20443;-57
2023/10/31 09:49:30;;;;;;;1.10;0.87;;;11.90;99.90;;;;;;5032462;28;20462;-57
2023/10/31 09:51:58;;;;;;;1.23;0.80;;;11.90;99.90;;;;;;5025654;28;20493;-57
2023/10/31 09:54:26;;;;;;;1.93;0.90;;;11.90;99.90;;;;;;5033632;28;20517;-57
2023/10/31 09:56:53;;;;;;;1.00;0.83;;;12.00;99.90;;;;;;5033940;28;20486;-56
2023/10/31 09:59:20;;;;;;;1.73;0.80;;;12.00;99.90;;;;;;5032836;28;20462;-57
2023/10/31 10:01:46;;;;;;;2.10;0.77;;;11.90;99.90;;;;;;5033619;28;20475;-57
2023/10/31 10:04:13;;;;;;;1.13;1.00;;;11.90;99.90;;;;;;5047921;22;20548;-56
2023/10/31 10:06:51;;;;;;;0.90;0.60;;;11.90;99.90;;;;;;5022921;28;20534;-55
2023/10/31 10:09:17;;;;;;;0.80;0.80;;;11.90;99.90;;;;;;5013856;28;20436;-57
2023/10/31 10:11:44;;;;;;;2.73;1.00;;;12.00;99.90;;;;;;5013635;28;20440;-56
2023/10/31 10:14:12;;;;;;;2.37;0.70;;;12.00;99.90;;;;;;5013539;28;20802;-59
2023/10/31 10:16:39;;;;;;;11.67;1.30;;;12.10;99.90;;;;;;5014452;28;20515;-55
2023/10/31 10:19:17;;;;;;;2.13;1.03;;;12.20;99.90;;;;;;5032854;28;20852;-56
2023/10/31 10:21:49;;;;;;;3.63;1.07;;;12.30;99.90;;;;;;5032099;28;20548;-56
2023/10/31 10:24:16;;;;;;;1.73;0.80;;;12.40;99.90;;;;;;5033246;28;20489;-56
2023/10/31 10:26:43;;;;;;;1.00;0.90;;;12.50;99.90;;;;;;5033722;28;20489;-56
2023/10/31 10:29:09;;;;;;;1.17;0.80;;;12.60;99.90;;;;;;5033484;28;20442;-56
2023/10/31 10:31:36;;;;;;;2.13;0.90;;;12.50;99.90;;;;;;5032834;28;20876;-61
2023/10/31 10:34:03;;;;;;;0.80;0.80;;;12.50;99.90;;;;;;5031624;28;20463;-60
2023/10/31 10:36:32;;;;;;;2.30;0.90;;;12.40;99.90;;;;;;5032724;28;20482;-61
2023/10/31 10:39:01;;;;;;;7.47;1.20;;;12.60;99.90;;;;;;5031712;28;20455;-61
2023/10/31 10:41:29;;;;;;;3.77;0.80;;;12.80;99.90;;;;;;5032689;28;20447;-61
2023/10/31 10:43:57;;;;;;;1.23;0.90;;;12.90;99.90;;;;;;5032847;28;20992;-59
2023/10/31 10:46:26;;;;;;;1.03;0.90;;;12.90;99.90;;;;;;5032410;28;20466;-60
2023/10/31 10:48:57;;;;;;;2.30;0.80;;;12.90;99.90;;;;;;5032872;28;20449;-61
2023/10/31 10:51:29;;;;;;;3.37;0.73;;;12.80;99.90;;;;;;5031445;28;20467;-61
2023/10/31 10:54:06;;;;;;;5.00;0.90;;;12.90;99.90;;;;;;5032620;28;20533;-61
2023/10/31 10:56:39;;;;;;;0.97;0.70;;;13.00;99.90;;;;;;5031262;28;20478;-60
2023/10/31 10:59:13;;;;;;;2.30;1.13;;;13.20;99.90;;;;;;5032571;28;20858;-56
2023/10/31 11:01:42;;;;;;;2.13;0.77;;;13.30;99.90;;;;;;5032587;28;20442;-55
2023/10/31 11:04:09;;;;;;;1.10;0.77;;;13.40;99.90;;;;;;5032409;28;20493;-56
2023/10/31 11:06:37;;;;;;;1.57;0.80;;;13.20;99.90;;;;;;5032199;28;20434;-56
2023/10/31 11:09:07;;;;;;;0.80;0.80;;;13.10;99.90;;;;;;5031036;28;20465;-55
2023/10/31 11:11:34;;;;;;;1.47;0.87;;;13.30;99.90;;;;;;5031435;28;20463;-57
2023/10/31 11:14:02;;;;;;;1.93;0.80;;;13.20;99.90;;;;;;5031911;28;20845;-56
2023/10/31 11:16:34;;;;;;;0.93;0.93;;;13.10;99.90;;;;;;5032047;28;20486;-57
2023/10/31 11:19:01;;;;;;;7.40;0.87;;;13.00;99.90;;;;;;5032216;28;20541;-56
2023/10/31 11:21:29;;;;;;;3.67;1.17;;;12.90;99.90;;;;;;5032065;28;20446;-54
2023/10/31 11:23:59;;;;;;;2.00;1.17;;;12.80;99.90;;;;;;5030483;28;20463;-54
2023/10/31 11:26:28;;;;;;;4.40;1.57;;;12.70;99.90;;;;;;5031879;28;20446;-55
2023/10/31 11:29:04;;;;;;;4.00;1.10;;;12.60;99.90;;;;;;5030707;28;20466;-56
2023/10/31 11:31:31;;;;;;;1.00;1.00;;;12.60;99.90;;;;;;5031828;28;20990;-60
2023/10/31 11:33:58;;;;;;;3.13;2.20;;;12.50;99.90;;;;;;5032008;28;20802;-54
2023/10/31 11:36:25;;;;;;;2.00;1.30;;;12.50;99.90;;;;;;5031530;28;20447;-56
2023/10/31 11:39:12;;;;;;;12.03;1.00;;;12.40;99.90;;;;;;5030694;28;20463;-56
2023/10/31 11:41:41;;;;;;;4.07;1.53;;;12.50;99.90;;;;;;5031684;28;20975;-57
2023/10/31 11:44:07;;;;;;;9.80;1.10;;;12.40;99.90;;;;;;5030466;28;20516;-55
2023/10/31 11:46:34;;;;;;;2.80;1.20;;;12.30;99.90;;;;;;5031486;28;20863;-57
2023/10/31 11:49:01;;;;;;;1.77;1.30;;;12.40;99.90;;;;;;5031983;28;20482;-55
2023/10/31 11:51:28;;;;;;;1.50;1.40;;;12.70;99.90;;;;;;5031804;28;20450;-55
2023/10/31 11:53:55;;;;;;;3.30;1.80;;;12.80;99.90;;;;;;5031831;28;20505;-55
2023/10/31 11:56:23;;;;;;;2.20;2.00;;;12.80;99.90;;;;;;5030164;28;20537;-56
2023/10/31 11:58:58;;;;;;;1.80;1.70;;;12.70;99.90;;;;;;5031680;28;20444;-56
2023/10/31 12:01:24;;;;;;;1.33;1.27;;;12.60;99.90;;;;;;5028350;28;20495;-56
2023/10/31 12:03:51;;;;;;;1.53;1.40;;;12.60;99.90;;;;;;5031233;28;20509;-56
2023/10/31 12:06:20;;;;;;;1.43;1.33;;;12.60;99.90;;;;;;5031126;28;20467;-56
2023/10/31 12:08:48;;;;;;;1.77;1.43;;;12.50;99.90;;;;;;5031876;28;20522;-54
2023/10/31 12:11:16;;;;;;;1.40;1.30;;;12.50;99.90;;;;;;5031485;28;20810;-53
2023/10/31 12:13:53;;;;;;;2.97;1.30;;;12.50;99.90;;;;;;5030917;28;20781;-55
2023/10/31 12:16:25;;;;;;;2.20;1.30;;;12.50;99.90;;;;;;5031643;28;20516;-60
2023/10/31 12:18:56;;;;;;;1.37;0.90;;;12.60;99.90;;;;;;5030890;28;20458;-55
2023/10/31 12:21:36;;;;;;;1.07;1.07;;;12.60;99.90;;;;;;5031969;28;20465;-54
2023/10/31 12:24:06;;;;;;;1.20;1.10;;;12.50;99.90;;;;;;5031627;28;20527;-57
2023/10/31 12:26:34;;;;;;;2.80;1.47;;;12.50;99.90;;;;;;5031533;28;20451;-55
2023/10/31 12:29:11;;;;;;;1.50;1.40;;;12.50;99.90;;;;;;5030693;28;20813;-54
2023/10/31 12:31:45;;;;;;;1.90;1.20;;;12.60;99.90;;;;;;5031356;28;20454;-55
2023/10/31 12:34:12;;;;;;;0.97;0.97;;;12.70;99.90;;;;;;5030644;28;20479;-54
2023/10/31 12:36:40;;;;;;;0.80;0.80;;;12.80;97.70;;;;;;5030797;28;20443;-54
2023/10/31 12:39:11;;;;;;;1.53;0.90;;;12.80;28.40;;;;;;5031728;28;20439;-53
2023/10/31 12:41:39;;;;;;;1.77;0.70;;;12.80;24.40;;;;;;5034129;28;20483;-54
2023/10/31 12:44:08;;;;;;;5.90;0.80;;;12.80;24.20;;;;;;5035099;28;20447;-60
2023/10/31 12:46:35;;;;;;;6.10;0.70;;;12.70;99.90;;;;;;5033358;28;20983;-60